sensor_id;sensor_type;location;lat;lon;timestamp;pressure;altitude;pressure_sealevel;temperature
8533;BMP280;4304;53.876;10.662;2023-07-31T00:01:11;100826.53;;;14.17
8533;BMP280;4304;53.876;10.662;2023-07-31T00:03:36;100832.72;;;14.16
8533;BMP280;4304;53.876;10.662;2023-07-31T00:06:01;100818.38;;;14.10
8533;BMP280;4304;53.876;10.662;2023-07-31T00:08:27;100819.28;;;14.20
8533;BMP280;4304;53.876;10.662;2023-07-31T00:10:52;100821.03;;;14.20
8533;BMP280;4304;53.876;10.662;2023-07-31T00:13:18;100816.91;;;14.17
8533;BMP280;4304;53.876;10.662;2023-07-31T00:15:43;100824.25;;;14.23
8533;BMP280;4304;53.876;10.662;2023-07-31T00:18:08;100809.66;;;14.21
8533;BMP280;4304;53.876;10.662;2023-07-31T00:20:34;100814.88;;;14.21
8533;BMP280;4304;53.876;10.662;2023-07-31T00:22:59;100808.72;;;14.22
8533;BMP280;4304;53.876;10.662;2023-07-31T00:25:25;100795.19;;;14.17
8533;BMP280;4304;53.876;10.662;2023-07-31T00:27:50;100804.41;;;14.21
8533;BMP280;4304;53.876;10.662;2023-07-31T00:30:16;100791.94;;;14.24
8533;BMP280;4304;53.876;10.662;2023-07-31T00:32:41;100792.06;;;14.23
8533;BMP280;4304;53.876;10.662;2023-07-31T00:35:07;100776.16;;;14.15
8533;BMP280;4304;53.876;10.662;2023-07-31T00:37:32;100787.34;;;14.17
8533;BMP280;4304;53.876;10.662;2023-07-31T00:39:57;100776.16;;;14.15
8533;BMP280;4304;53.876;10.662;2023-07-31T00:42:24;100783.88;;;14.16
8533;BMP280;4304;53.876;10.662;2023-07-31T00:44:50;100790.66;;;14.19
8533;BMP280;4304;53.876;10.662;2023-07-31T00:47:15;100776.50;;;14.21
8533;BMP280;4304;53.876;10.662;2023-07-31T00:49:41;100789.44;;;14.23
8533;BMP280;4304;53.876;10.662;2023-07-31T00:52:07;100777.47;;;14.20
8533;BMP280;4304;53.876;10.662;2023-07-31T00:54:33;100780.91;;;14.21
8533;BMP280;4304;53.876;10.662;2023-07-31T00:56:59;100784.34;;;14.21
8533;BMP280;4304;53.876;10.662;2023-07-31T00:59:25;100780.19;;;14.19
8533;BMP280;4304;53.876;10.662;2023-07-31T01:01:50;100765.34;;;14.19
8533;BMP280;4304;53.876;10.662;2023-07-31T01:04:17;100771.53;;;14.18
8533;BMP280;4304;53.876;10.662;2023-07-31T01:12:02;100760.94;;;14.20
8533;BMP280;4304;53.876;10.662;2023-07-31T01:14:28;100761.34;;;14.15
8533;BMP280;4304;53.876;10.662;2023-07-31T01:16:54;100767.94;;;14.19
8533;BMP280;4304;53.876;10.662;2023-07-31T01:19:22;100759.41;;;14.17
8533;BMP280;4304;53.876;10.662;2023-07-31T01:27:15;100771.59;;;14.28
8533;BMP280;4304;53.876;10.662;2023-07-31T01:29:55;100754.97;;;14.29
8533;BMP280;4304;53.876;10.662;2023-07-31T01:32:22;100746.56;;;14.25
8533;BMP280;4304;53.876;10.662;2023-07-31T01:34:48;100742.16;;;14.26
8533;BMP280;4304;53.876;10.662;2023-07-31T01:37:14;100742.38;;;14.23
8533;BMP280;4304;53.876;10.662;2023-07-31T01:39:39;100739.41;;;14.27
8533;BMP280;4304;53.876;10.662;2023-07-31T01:42:04;100736.78;;;14.27
8533;BMP280;4304;53.876;10.662;2023-07-31T01:44:30;100744.28;;;14.32
8533;BMP280;4304;53.876;10.662;2023-07-31T01:46:55;100737.75;;;14.26
8533;BMP280;4304;53.876;10.662;2023-07-31T01:49:21;100738.72;;;14.25
8533;BMP280;4304;53.876;10.662;2023-07-31T01:51:46;100731.44;;;14.29
8533;BMP280;4304;53.876;10.662;2023-07-31T01:54:12;100734.31;;;14.26
8533;BMP280;4304;53.876;10.662;2023-07-31T01:56:37;100722.91;;;14.27
8533;BMP280;4304;53.876;10.662;2023-07-31T01:59:02;100724.09;;;14.23
8533;BMP280;4304;53.876;10.662;2023-07-31T02:01:28;100729.91;;;14.26
8533;BMP280;4304;53.876;10.662;2023-07-31T02:03:53;100724.66;;;14.26
8533;BMP280;4304;53.876;10.662;2023-07-31T02:06:19;100714.50;;;14.23
8533;BMP280;4304;53.876;10.662;2023-07-31T02:08:44;100727.16;;;14.28
8533;BMP280;4304;53.876;10.662;2023-07-31T02:11:10;100742.97;;;14.26
8533;BMP280;4304;53.876;10.662;2023-07-31T02:13:35;100738.97;;;14.22
8533;BMP280;4304;53.876;10.662;2023-07-31T02:16:01;100721.16;;;14.16
8533;BMP280;4304;53.876;10.662;2023-07-31T02:18:26;100735.53;;;14.22
8533;BMP280;4304;53.876;10.662;2023-07-31T02:20:52;100726.72;;;14.23
8533;BMP280;4304;53.876;10.662;2023-07-31T02:23:20;100734.31;;;14.26
8533;BMP280;4304;53.876;10.662;2023-07-31T02:25:46;100722.19;;;14.25
8533;BMP280;4304;53.876;10.662;2023-07-31T02:28:11;100718.75;;;14.24
8533;BMP280;4304;53.876;10.662;2023-07-31T02:30:37;100722.91;;;14.27
8533;BMP280;4304;53.876;10.662;2023-07-31T02:33:04;100718.25;;;14.30
8533;BMP280;4304;53.876;10.662;2023-07-31T02:35:29;100707.34;;;14.25
8533;BMP280;4304;53.876;10.662;2023-07-31T02:37:55;100713.53;;;14.24
8533;BMP280;4304;53.876;10.662;2023-07-31T02:40:20;100706.50;;;14.25
8533;BMP280;4304;53.876;10.662;2023-07-31T02:42:45;100695.47;;;14.21
8533;BMP280;4304;53.876;10.662;2023-07-31T02:45:11;100686.81;;;14.21
8533;BMP280;4304;53.876;10.662;2023-07-31T02:47:36;100697.97;;;14.23
8533;BMP280;4304;53.876;10.662;2023-07-31T02:50:03;100695.22;;;14.24
8533;BMP280;4304;53.876;10.662;2023-07-31T02:52:29;100698.66;;;14.25
8533;BMP280;4304;53.876;10.662;2023-07-31T02:54:54;100697.47;;;14.29
8533;BMP280;4304;53.876;10.662;2023-07-31T02:57:20;100698.84;;;14.33
8533;BMP280;4304;53.876;10.662;2023-07-31T02:59:45;100696.13;;;14.34
8533;BMP280;4304;53.876;10.662;2023-07-31T03:02:10;100696.13;;;14.34
8533;BMP280;4304;53.876;10.662;2023-07-31T03:04:37;100696.38;;;14.31
8533;BMP280;4304;53.876;10.662;2023-07-31T03:07:02;100683.03;;;14.34
8533;BMP280;4304;53.876;10.662;2023-07-31T03:09:28;100688.41;;;14.33
8533;BMP280;4304;53.876;10.662;2023-07-31T03:11:53;100688.03;;;14.37
8533;BMP280;4304;53.876;10.662;2023-07-31T03:14:19;100683.50;;;14.39
8533;BMP280;4304;53.876;10.662;2023-07-31T03:16:44;100686.97;;;14.40
8533;BMP280;4304;53.876;10.662;2023-07-31T03:19:09;100679.25;;;14.38
8533;BMP280;4304;53.876;10.662;2023-07-31T03:21:35;100682.41;;;14.42
8533;BMP280;4304;53.876;10.662;2023-07-31T03:24:00;100668.38;;;14.43
8533;BMP280;4304;53.876;10.662;2023-07-31T03:26:26;100667.31;;;14.45
8533;BMP280;4304;53.876;10.662;2023-07-31T03:28:51;100670.47;;;14.49
8533;BMP280;4304;53.876;10.662;2023-07-31T03:31:16;100668.00;;;14.47
8533;BMP280;4304;53.876;10.662;2023-07-31T03:33:42;100669.66;;;14.48
8533;BMP280;4304;53.876;10.662;2023-07-31T03:36:07;100658.34;;;14.48
8533;BMP280;4304;53.876;10.662;2023-07-31T03:38:34;100667.75;;;14.50
8533;BMP280;4304;53.876;10.662;2023-07-31T03:40:59;100660.03;;;14.49
8533;BMP280;4304;53.876;10.662;2023-07-31T03:43:24;100656.19;;;14.52
8533;BMP280;4304;53.876;10.662;2023-07-31T03:45:50;100654.41;;;14.53
8533;BMP280;4304;53.876;10.662;2023-07-31T03:48:16;100645.72;;;14.52
8533;BMP280;4304;53.876;10.662;2023-07-31T03:50:41;100650.94;;;14.52
8533;BMP280;4304;53.876;10.662;2023-07-31T03:53:07;100642.28;;;14.52
8533;BMP280;4304;53.876;10.662;2023-07-31T03:55:32;100630.03;;;14.52
8533;BMP280;4304;53.876;10.662;2023-07-31T03:57:57;100636.13;;;14.53
8533;BMP280;4304;53.876;10.662;2023-07-31T04:00:23;100635.81;;;14.56
8533;BMP280;4304;53.876;10.662;2023-07-31T04:02:49;100642.59;;;14.58
8533;BMP280;4304;53.876;10.662;2023-07-31T04:05:14;100648.91;;;14.56
8533;BMP280;4304;53.876;10.662;2023-07-31T04:07:39;100644.28;;;14.59
8533;BMP280;4304;53.876;10.662;2023-07-31T04:10:08;100647.97;;;14.57
8533;BMP280;4304;53.876;10.662;2023-07-31T04:12:33;100654.84;;;14.58
8533;BMP280;4304;53.876;10.662;2023-07-31T04:14:59;100654.44;;;14.62
8533;BMP280;4304;53.876;10.662;2023-07-31T04:17:24;100656.94;;;14.64
8533;BMP280;4304;53.876;10.662;2023-07-31T04:19:49;100645.41;;;14.66
8533;BMP280;4304;53.876;10.662;2023-07-31T04:22:15;100643.97;;;14.62
8533;BMP280;4304;53.876;10.662;2023-07-31T04:24:40;100650.56;;;14.57
8533;BMP280;4304;53.876;10.662;2023-07-31T04:27:05;100642.91;;;14.65
8533;BMP280;4304;53.876;10.662;2023-07-31T04:29:31;100633.28;;;14.65
8533;BMP280;4304;53.876;10.662;2023-07-31T04:31:56;100636.44;;;14.69
8533;BMP280;4304;53.876;10.662;2023-07-31T04:34:27;100631.09;;;14.70
8533;BMP280;4304;53.876;10.662;2023-07-31T04:36:52;100631.09;;;14.70
8533;BMP280;4304;53.876;10.662;2023-07-31T04:39:17;100617.88;;;14.72
8533;BMP280;4304;53.876;10.662;2023-07-31T04:41:44;100630.31;;;14.79
8533;BMP280;4304;53.876;10.662;2023-07-31T04:44:09;100628.53;;;14.80
8533;BMP280;4304;53.876;10.662;2023-07-31T04:46:36;100620.97;;;14.86
8533;BMP280;4304;53.876;10.662;2023-07-31T04:49:02;100633.66;;;14.91
8533;BMP280;4304;53.876;10.662;2023-07-31T04:51:28;100623.75;;;14.94
8533;BMP280;4304;53.876;10.662;2023-07-31T04:53:53;100627.63;;;14.99
8533;BMP280;4304;53.876;10.662;2023-07-31T04:56:18;100624.88;;;15.01
8533;BMP280;4304;53.876;10.662;2023-07-31T04:58:44;100619.38;;;15.04
8533;BMP280;4304;53.876;10.662;2023-07-31T05:01:09;100613.72;;;15.08
8533;BMP280;4304;53.876;10.662;2023-07-31T05:03:35;100606.59;;;15.10
8533;BMP280;4304;53.876;10.662;2023-07-31T05:06:00;100612.00;;;15.18
8533;BMP280;4304;53.876;10.662;2023-07-31T05:08:26;100614.63;;;15.18
8533;BMP280;4304;53.876;10.662;2023-07-31T05:10:51;100613.91;;;15.16
8533;BMP280;4304;53.876;10.662;2023-07-31T05:13:16;100612.84;;;15.19
8533;BMP280;4304;53.876;10.662;2023-07-31T05:15:42;100611.44;;;15.24
8533;BMP280;4304;53.876;10.662;2023-07-31T05:18:07;100613.69;;;15.29
8533;BMP280;4304;53.876;10.662;2023-07-31T05:20:33;100606.78;;;15.28
8533;BMP280;4304;53.876;10.662;2023-07-31T05:22:58;100609.69;;;15.34
8533;BMP280;4304;53.876;10.662;2023-07-31T05:25:23;100613.84;;;15.37
8533;BMP280;4304;53.876;10.662;2023-07-31T05:27:49;100611.75;;;15.40
8533;BMP280;4304;53.876;10.662;2023-07-31T05:30:14;100604.72;;;15.40
8533;BMP280;4304;53.876;10.662;2023-07-31T05:32:39;100600.59;;;15.38
8533;BMP280;4304;53.876;10.662;2023-07-31T05:35:05;100600.44;;;15.39
8533;BMP280;4304;53.876;10.662;2023-07-31T05:37:30;100593.16;;;15.43
8533;BMP280;4304;53.876;10.662;2023-07-31T05:39:56;100597.97;;;15.47
8533;BMP280;4304;53.876;10.662;2023-07-31T05:42:21;100598.53;;;15.51
8533;BMP280;4304;53.876;10.662;2023-07-31T05:44:47;100585.00;;;15.46
8533;BMP280;4304;53.876;10.662;2023-07-31T05:47:12;100588.63;;;15.45
8533;BMP280;4304;53.876;10.662;2023-07-31T05:49:38;100586.81;;;15.45
8533;BMP280;4304;53.876;10.662;2023-07-31T05:52:03;100580.75;;;15.45
8533;BMP280;4304;53.876;10.662;2023-07-31T05:54:29;100581.44;;;15.47
8533;BMP280;4304;53.876;10.662;2023-07-31T05:56:54;100580.34;;;15.49
8533;BMP280;4304;53.876;10.662;2023-07-31T05:59:20;100579.09;;;15.53
8533;BMP280;4304;53.876;10.662;2023-07-31T06:01:45;100579.78;;;15.55
8533;BMP280;4304;53.876;10.662;2023-07-31T06:04:10;100580.47;;;15.57
8533;BMP280;4304;53.876;10.662;2023-07-31T06:06:36;100592.06;;;15.64
8533;BMP280;4304;53.876;10.662;2023-07-31T06:09:01;100576.34;;;15.64
8533;BMP280;4304;53.876;10.662;2023-07-31T06:11:28;100571.81;;;15.66
8533;BMP280;4304;53.876;10.662;2023-07-31T06:13:54;100564.47;;;15.70
8533;BMP280;4304;53.876;10.662;2023-07-31T06:16:19;100575.50;;;15.73
8533;BMP280;4304;53.876;10.662;2023-07-31T06:18:46;100562.41;;;15.82
8533;BMP280;4304;53.876;10.662;2023-07-31T06:21:11;100576.19;;;15.84
8533;BMP280;4304;53.876;10.662;2023-07-31T06:23:37;100567.66;;;15.82
8533;BMP280;4304;53.876;10.662;2023-07-31T06:26:02;100573.97;;;15.89
8533;BMP280;4304;53.876;10.662;2023-07-31T06:28:28;100569.28;;;15.93
8533;BMP280;4304;53.876;10.662;2023-07-31T06:30:57;100567.88;;;15.98
8533;BMP280;4304;53.876;10.662;2023-07-31T06:33:23;100575.06;;;16.06
8533;BMP280;4304;53.876;10.662;2023-07-31T06:35:48;100573.66;;;16.11
8533;BMP280;4304;53.876;10.662;2023-07-31T06:38:13;100570.75;;;16.14
8533;BMP280;4304;53.876;10.662;2023-07-31T06:40:39;100582.47;;;16.20
8533;BMP280;4304;53.876;10.662;2023-07-31T06:43:05;100572.53;;;16.23
8533;BMP280;4304;53.876;10.662;2023-07-31T06:45:36;100578.19;;;16.19
8533;BMP280;4304;53.876;10.662;2023-07-31T06:48:02;100580.97;;;16.17
8533;BMP280;4304;53.876;10.662;2023-07-31T06:50:29;100580.72;;;16.20
8533;BMP280;4304;53.876;10.662;2023-07-31T06:52:55;100573.09;;;16.17
8533;BMP280;4304;53.876;10.662;2023-07-31T06:55:21;100580.56;;;16.22
8533;BMP280;4304;53.876;10.662;2023-07-31T06:57:47;100569.09;;;16.23
8533;BMP280;4304;53.876;10.662;2023-07-31T07:00:13;100574.75;;;16.27
8533;BMP280;4304;53.876;10.662;2023-07-31T07:02:39;100572.25;;;16.26
8533;BMP280;4304;53.876;10.662;2023-07-31T07:05:04;100554.34;;;16.22
8533;BMP280;4304;53.876;10.662;2023-07-31T07:07:30;100558.34;;;16.25
8533;BMP280;4304;53.876;10.662;2023-07-31T07:09:55;100552.94;;;16.27
8533;BMP280;4304;53.876;10.662;2023-07-31T07:12:20;100549.06;;;16.31
8533;BMP280;4304;53.876;10.662;2023-07-31T07:14:46;100554.56;;;16.37
8533;BMP280;4304;53.876;10.662;2023-07-31T07:17:13;100563.66;;;16.43
8533;BMP280;4304;53.876;10.662;2023-07-31T07:19:40;100555.34;;;16.47
8533;BMP280;4304;53.876;10.662;2023-07-31T07:22:05;100554.41;;;16.39
8533;BMP280;4304;53.876;10.662;2023-07-31T07:24:31;100552.06;;;16.45
8533;BMP280;4304;53.876;10.662;2023-07-31T07:26:56;100559.81;;;16.37
8533;BMP280;4304;53.876;10.662;2023-07-31T07:29:22;100559.53;;;16.40
8533;BMP280;4304;53.876;10.662;2023-07-31T07:31:47;100560.34;;;16.41
8533;BMP280;4304;53.876;10.662;2023-07-31T07:34:12;100563.50;;;16.44
8533;BMP280;4304;53.876;10.662;2023-07-31T07:36:38;100560.72;;;16.46
8533;BMP280;4304;53.876;10.662;2023-07-31T07:39:03;100563.09;;;16.39
8533;BMP280;4304;53.876;10.662;2023-07-31T07:41:29;100567.94;;;16.34
8533;BMP280;4304;53.876;10.662;2023-07-31T07:43:54;100563.44;;;16.27
8533;BMP280;4304;53.876;10.662;2023-07-31T07:46:19;100565.31;;;16.34
8533;BMP280;4304;53.876;10.662;2023-07-31T07:48:44;100567.88;;;16.26
8533;BMP280;4304;53.876;10.662;2023-07-31T07:51:10;100555.72;;;16.25
8533;BMP280;4304;53.876;10.662;2023-07-31T07:53:35;100561.78;;;16.26
8533;BMP280;4304;53.876;10.662;2023-07-31T07:56:01;100575.88;;;16.25
8533;BMP280;4304;53.876;10.662;2023-07-31T07:58:26;100565.66;;;16.22
8533;BMP280;4304;53.876;10.662;2023-07-31T08:00:51;100573.66;;;16.21
8533;BMP280;4304;53.876;10.662;2023-07-31T08:03:17;100559.75;;;16.20
8533;BMP280;4304;53.876;10.662;2023-07-31T08:05:43;100568.81;;;16.25
8533;BMP280;4304;53.876;10.662;2023-07-31T08:08:14;100564.00;;;16.21
8533;BMP280;4304;53.876;10.662;2023-07-31T08:10:40;100571.72;;;16.23
8533;BMP280;4304;53.876;10.662;2023-07-31T08:13:05;100558.88;;;16.20
8533;BMP280;4304;53.876;10.662;2023-07-31T08:15:30;100550.47;;;16.25
8533;BMP280;4304;53.876;10.662;2023-07-31T08:17:56;100547.28;;;16.31
8533;BMP280;4304;53.876;10.662;2023-07-31T08:20:21;100543.25;;;16.37
8533;BMP280;4304;53.876;10.662;2023-07-31T08:22:46;100544.59;;;16.41
8533;BMP280;4304;53.876;10.662;2023-07-31T08:25:12;100538.53;;;16.40
8533;BMP280;4304;53.876;10.662;2023-07-31T08:27:37;100549.53;;;16.53
8533;BMP280;4304;53.876;10.662;2023-07-31T08:30:02;100533.13;;;16.51
8533;BMP280;4304;53.876;10.662;2023-07-31T08:32:28;100542.06;;;16.58
8533;BMP280;4304;53.876;10.662;2023-07-31T08:34:53;100537.75;;;16.57
8533;BMP280;4304;53.876;10.662;2023-07-31T08:37:18;100534.81;;;16.69
8533;BMP280;4304;53.876;10.662;2023-07-31T08:39:44;100532.72;;;16.73
8533;BMP280;4304;53.876;10.662;2023-07-31T08:42:09;100527.72;;;16.79
8533;BMP280;4304;53.876;10.662;2023-07-31T08:44:35;100531.16;;;16.80
8533;BMP280;4304;53.876;10.662;2023-07-31T08:47:00;100527.03;;;16.77
8533;BMP280;4304;53.876;10.662;2023-07-31T08:49:27;100518.66;;;16.74
8533;BMP280;4304;53.876;10.662;2023-07-31T08:51:53;100524.66;;;16.84
8533;BMP280;4304;53.876;10.662;2023-07-31T08:54:19;100514.53;;;16.89
8533;BMP280;4304;53.876;10.662;2023-07-31T08:56:46;100517.84;;;16.91
8533;BMP280;4304;53.876;10.662;2023-07-31T08:59:13;100511.22;;;16.87
8533;BMP280;4304;53.876;10.662;2023-07-31T09:01:43;100508.41;;;16.98
8533;BMP280;4304;53.876;10.662;2023-07-31T09:04:09;100506.28;;;17.01
8533;BMP280;4304;53.876;10.662;2023-07-31T09:06:36;100518.69;;;17.09
8533;BMP280;4304;53.876;10.662;2023-07-31T09:09:02;100521.97;;;16.93
8533;BMP280;4304;53.876;10.662;2023-07-31T09:11:28;100519.28;;;17.03
8533;BMP280;4304;53.876;10.662;2023-07-31T09:13:57;100518.38;;;17.11
8533;BMP280;4304;53.876;10.662;2023-07-31T09:16:29;100508.84;;;17.10
8533;BMP280;4304;53.876;10.662;2023-07-31T09:18:57;100514.94;;;17.11
8533;BMP280;4304;53.876;10.662;2023-07-31T09:21:24;100515.06;;;17.09
8533;BMP280;4304;53.876;10.662;2023-07-31T09:23:51;100510.09;;;17.07
8533;BMP280;4304;53.876;10.662;2023-07-31T09:26:35;100507.44;;;17.16
8533;BMP280;4304;53.876;10.662;2023-07-31T09:29:04;100502.09;;;17.08
8533;BMP280;4304;53.876;10.662;2023-07-31T09:31:38;100495.22;;;17.24
8533;BMP280;4304;53.876;10.662;2023-07-31T09:34:04;100486.19;;;17.44
8533;BMP280;4304;53.876;10.662;2023-07-31T09:36:30;100483.03;;;17.58
8533;BMP280;4304;53.876;10.662;2023-07-31T09:39:01;100483.25;;;17.64
8533;BMP280;4304;53.876;10.662;2023-07-31T09:41:27;100478.88;;;17.73
8533;BMP280;4304;53.876;10.662;2023-07-31T09:43:53;100472.91;;;17.63
8533;BMP280;4304;53.876;10.662;2023-07-31T09:46:20;100483.31;;;17.72
8533;BMP280;4304;53.876;10.662;2023-07-31T09:48:45;100489.59;;;17.79
8533;BMP280;4304;53.876;10.662;2023-07-31T09:51:11;100492.91;;;17.81
8533;BMP280;4304;53.876;10.662;2023-07-31T09:53:37;100475.06;;;17.67
8533;BMP280;4304;53.876;10.662;2023-07-31T09:56:03;100475.47;;;17.80
8533;BMP280;4304;53.876;10.662;2023-07-31T09:58:29;100468.13;;;17.84
8533;BMP280;4304;53.876;10.662;2023-07-31T10:00:57;100467.78;;;17.87
8533;BMP280;4304;53.876;10.662;2023-07-31T10:03:23;100450.44;;;18.01
8533;BMP280;4304;53.876;10.662;2023-07-31T10:05:50;100461.75;;;18.19
8533;BMP280;4304;53.876;10.662;2023-07-31T10:08:18;100452.44;;;18.33
8533;BMP280;4304;53.876;10.662;2023-07-31T10:10:44;100460.31;;;18.25
8533;BMP280;4304;53.876;10.662;2023-07-31T10:13:10;100448.09;;;18.16
8533;BMP280;4304;53.876;10.662;2023-07-31T10:15:36;100449.63;;;18.01
8533;BMP280;4304;53.876;10.662;2023-07-31T10:18:02;100441.91;;;17.99
8533;BMP280;4304;53.876;10.662;2023-07-31T10:20:28;100433.56;;;18.04
8533;BMP280;4304;53.876;10.662;2023-07-31T10:22:57;100432.78;;;18.11
8533;BMP280;4304;53.876;10.662;2023-07-31T10:25:28;100426.44;;;18.22
8533;BMP280;4304;53.876;10.662;2023-07-31T10:27:54;100425.97;;;18.34
8533;BMP280;4304;53.876;10.662;2023-07-31T10:30:24;100435.22;;;18.38
8533;BMP280;4304;53.876;10.662;2023-07-31T10:32:51;100426.22;;;18.56
8533;BMP280;4304;53.876;10.662;2023-07-31T10:35:17;100432.59;;;18.54
8533;BMP280;4304;53.876;10.662;2023-07-31T10:37:43;100433.78;;;18.51
8533;BMP280;4304;53.876;10.662;2023-07-31T10:42:49;100429.44;;;18.42
8533;BMP280;4304;53.876;10.662;2023-07-31T10:45:24;100416.47;;;18.41
8533;BMP280;4304;53.876;10.662;2023-07-31T10:47:58;100411.34;;;18.32
8533;BMP280;4304;53.876;10.662;2023-07-31T10:50:24;100410.69;;;18.38
8533;BMP280;4304;53.876;10.662;2023-07-31T10:52:51;100407.59;;;18.42
8533;BMP280;4304;53.876;10.662;2023-07-31T10:55:33;100411.25;;;18.57
8533;BMP280;4304;53.876;10.662;2023-07-31T11:00:31;100419.81;;;18.51
8533;BMP280;4304;53.876;10.662;2023-07-31T11:03:08;100429.13;;;18.45
8533;BMP280;4304;53.876;10.662;2023-07-31T11:05:48;100437.31;;;18.27
8533;BMP280;4304;53.876;10.662;2023-07-31T11:08:28;100438.38;;;18.16
8533;BMP280;4304;53.876;10.662;2023-07-31T11:15:53;100430.69;;;18.15
8533;BMP280;4304;53.876;10.662;2023-07-31T11:18:19;100414.84;;;18.07
8533;BMP280;4304;53.876;10.662;2023-07-31T11:20:44;100410.00;;;17.95
8533;BMP280;4304;53.876;10.662;2023-07-31T11:23:11;100403.72;;;17.88
8533;BMP280;4304;53.876;10.662;2023-07-31T11:25:38;100399.78;;;17.84
8533;BMP280;4304;53.876;10.662;2023-07-31T11:28:08;100410.81;;;17.87
8533;BMP280;4304;53.876;10.662;2023-07-31T11:30:35;100407.25;;;17.71
8533;BMP280;4304;53.876;10.662;2023-07-31T11:33:02;100406.31;;;17.80
8533;BMP280;4304;53.876;10.662;2023-07-31T11:35:31;100407.63;;;17.76
8533;BMP280;4304;53.876;10.662;2023-07-31T11:37:57;100400.91;;;17.81
8533;BMP280;4304;53.876;10.662;2023-07-31T11:40:22;100407.69;;;17.92
8533;BMP280;4304;53.876;10.662;2023-07-31T11:42:53;100412.59;;;17.87
8533;BMP280;4304;53.876;10.662;2023-07-31T11:45:19;100407.91;;;17.73
8533;BMP280;4304;53.876;10.662;2023-07-31T11:47:45;100402.56;;;17.82
8533;BMP280;4304;53.876;10.662;2023-07-31T11:50:11;100399.44;;;17.87
8533;BMP280;4304;53.876;10.662;2023-07-31T11:52:40;100400.09;;;17.81
8533;BMP280;4304;53.876;10.662;2023-07-31T11:55:08;100404.84;;;17.77
8533;BMP280;4304;53.876;10.662;2023-07-31T11:57:36;100402.06;;;17.79
8533;BMP280;4304;53.876;10.662;2023-07-31T12:00:02;100402.06;;;17.79
8533;BMP280;4304;53.876;10.662;2023-07-31T12:02:28;100402.66;;;17.73
8533;BMP280;4304;53.876;10.662;2023-07-31T12:04:56;100391.66;;;17.69
8533;BMP280;4304;53.876;10.662;2023-07-31T12:07:23;100388.31;;;17.93
8533;BMP280;4304;53.876;10.662;2023-07-31T12:09:55;100389.56;;;18.14
8533;BMP280;4304;53.876;10.662;2023-07-31T12:12:21;100385.13;;;18.14
8533;BMP280;4304;53.876;10.662;2023-07-31T12:14:47;100380.53;;;18.16
8533;BMP280;4304;53.876;10.662;2023-07-31T12:17:14;100380.16;;;18.03
8533;BMP280;4304;53.876;10.662;2023-07-31T12:19:39;100378.44;;;17.95
8533;BMP280;4304;53.876;10.662;2023-07-31T12:22:15;100383.16;;;17.83
8533;BMP280;4304;53.876;10.662;2023-07-31T12:24:43;100382.91;;;17.69
8533;BMP280;4304;53.876;10.662;2023-07-31T12:27:15;100382.56;;;17.64
8533;BMP280;4304;53.876;10.662;2023-07-31T12:29:46;100379.91;;;17.56
8533;BMP280;4304;53.876;10.662;2023-07-31T12:32:24;100382.47;;;17.48
8533;BMP280;4304;53.876;10.662;2023-07-31T12:34:50;100395.16;;;17.53
8533;BMP280;4304;53.876;10.662;2023-07-31T12:37:16;100391.13;;;17.41
8533;BMP280;4304;53.876;10.662;2023-07-31T12:39:41;100388.66;;;17.39
8533;BMP280;4304;53.876;10.662;2023-07-31T12:42:07;100378.78;;;17.33
8533;BMP280;4304;53.876;10.662;2023-07-31T12:44:32;100378.31;;;17.63
8533;BMP280;4304;53.876;10.662;2023-07-31T12:46:57;100378.97;;;17.65
8533;BMP280;4304;53.876;10.662;2023-07-31T12:49:23;100376.44;;;17.81
8533;BMP280;4304;53.876;10.662;2023-07-31T12:51:48;100369.28;;;18.06
8533;BMP280;4304;53.876;10.662;2023-07-31T12:54:14;100374.41;;;18.08
8533;BMP280;4304;53.876;10.662;2023-07-31T12:56:39;100365.50;;;18.01
8533;BMP280;4304;53.876;10.662;2023-07-31T12:59:05;100361.06;;;18.01
8533;BMP280;4304;53.876;10.662;2023-07-31T13:01:31;100364.19;;;17.97
8533;BMP280;4304;53.876;10.662;2023-07-31T13:03:56;100359.22;;;17.94
8533;BMP280;4304;53.876;10.662;2023-07-31T13:06:22;100355.13;;;17.99
8533;BMP280;4304;53.876;10.662;2023-07-31T13:08:47;100362.72;;;18.02
8533;BMP280;4304;53.876;10.662;2023-07-31T13:11:13;100356.31;;;18.05
8533;BMP280;4304;53.876;10.662;2023-07-31T13:13:38;100352.84;;;18.04
8533;BMP280;4304;53.876;10.662;2023-07-31T13:16:04;100353.88;;;18.11
8533;BMP280;4304;53.876;10.662;2023-07-31T13:18:29;100350.44;;;18.11
8533;BMP280;4304;53.876;10.662;2023-07-31T13:20:54;100349.47;;;18.12
8533;BMP280;4304;53.876;10.662;2023-07-31T13:23:20;100354.84;;;18.10
8533;BMP280;4304;53.876;10.662;2023-07-31T13:25:45;100339.56;;;18.06
8533;BMP280;4304;53.876;10.662;2023-07-31T13:28:11;100350.06;;;18.06
8533;BMP280;4304;53.876;10.662;2023-07-31T13:30:36;100343.06;;;18.14
8533;BMP280;4304;53.876;10.662;2023-07-31T13:33:02;100344.06;;;18.13
8533;BMP280;4304;53.876;10.662;2023-07-31T13:35:27;100337.50;;;18.25
8533;BMP280;4304;53.876;10.662;2023-07-31T13:37:53;100335.19;;;18.22
8533;BMP280;4304;53.876;10.662;2023-07-31T13:40:18;100335.09;;;18.40
8533;BMP280;4304;53.876;10.662;2023-07-31T13:42:43;100337.38;;;18.35
8533;BMP280;4304;53.876;10.662;2023-07-31T13:45:09;100336.50;;;18.26
8533;BMP280;4304;53.876;10.662;2023-07-31T13:47:34;100330.31;;;18.43
8533;BMP280;4304;53.876;10.662;2023-07-31T13:50:02;100330.13;;;18.37
8533;BMP280;4304;53.876;10.662;2023-07-31T13:52:27;100328.28;;;18.21
8533;BMP280;4304;53.876;10.662;2023-07-31T13:54:52;100327.00;;;18.25
8533;BMP280;4304;53.876;10.662;2023-07-31T13:57:18;100329.63;;;18.33
8533;BMP280;4304;53.876;10.662;2023-07-31T13:59:43;100320.91;;;18.25
8533;BMP280;4304;53.876;10.662;2023-07-31T14:02:08;100323.22;;;17.87
8533;BMP280;4304;53.876;10.662;2023-07-31T14:04:34;100316.78;;;17.81
8533;BMP280;4304;53.876;10.662;2023-07-31T14:06:59;100315.47;;;17.77
8533;BMP280;4304;53.876;10.662;2023-07-31T14:09:25;100305.47;;;17.81
8533;BMP280;4304;53.876;10.662;2023-07-31T14:11:50;100311.44;;;18.06
8533;BMP280;4304;53.876;10.662;2023-07-31T14:14:15;100306.09;;;18.16
8533;BMP280;4304;53.876;10.662;2023-07-31T14:16:43;100293.94;;;17.82
8533;BMP280;4304;53.876;10.662;2023-07-31T14:19:08;100297.84;;;17.70
8533;BMP280;4304;53.876;10.662;2023-07-31T14:21:33;100297.72;;;17.79
8533;BMP280;4304;53.876;10.662;2023-07-31T14:23:59;100282.34;;;17.59